Terminal Aerodrome Forecast
Issued by NWS Shreveport, LA

Home | Current Version | Previous Version | Text Only | Print | Product List | Glossary On
Versions: 1 2 3 4 5 6 7 8 9 10 11 12 13 14 15 16 17 18 19
000
FTUS44 KSHV 292342
TAFTYR
TAF
KTYR 292342Z 3000/3024 14012G20KT P6SM VCTS SCT020 BKN040CB
      TEMPO 3001/3004 VRB25G50KT 1SM +TSRAGR BR OVC015CB
     FM300500 23010KT P6SM VCSH OVC070
     FM301300 25012G18KT P6SM SKC
      TEMPO 3017/3021 25016G28KT=

USA.gov is the U.S. government's official web portal to all federal, state and local government web resources and services.